sensor_id;sensor_type;location;lat;lon;timestamp;pressure;altitude;pressure_sealevel;temperature;humidity
69171;BME280;56279;47.902;12.308;2023-04-25T00:00:42;94800.81;;;7.23;81.28
69171;BME280;56279;47.902;12.308;2023-04-25T00:02:43;94802.34;;;7.24;80.74
69171;BME280;56279;47.902;12.308;2023-04-25T00:04:45;94799.75;;;7.24;80.93
69171;BME280;56279;47.902;12.308;2023-04-25T00:06:47;94805.53;;;7.26;80.80
69171;BME280;56279;47.902;12.308;2023-04-25T00:08:48;94806.81;;;7.28;80.96
69171;BME280;56279;47.902;12.308;2023-04-25T00:10:50;94803.94;;;7.30;80.88
69171;BME280;56279;47.902;12.308;2023-04-25T00:12:51;94805.47;;;7.31;80.45
69171;BME280;56279;47.902;12.308;2023-04-25T00:14:53;94798.13;;;7.33;80.57
69171;BME280;56279;47.902;12.308;2023-04-25T00:16:54;94795.75;;;7.36;80.14
69171;BME280;56279;47.902;12.308;2023-04-25T00:18:55;94796.78;;;7.40;80.31
69171;BME280;56279;47.902;12.308;2023-04-25T00:20:57;94795.97;;;7.45;80.30
69171;BME280;56279;47.902;12.308;2023-04-25T00:23:03;94791.22;;;7.47;79.38
69171;BME280;56279;47.902;12.308;2023-04-25T00:25:05;94786.78;;;7.47;80.18
69171;BME280;56279;47.902;12.308;2023-04-25T00:27:07;94782.31;;;7.48;80.11
69171;BME280;56279;47.902;12.308;2023-04-25T00:29:08;94783.91;;;7.49;79.78
69171;BME280;56279;47.902;12.308;2023-04-25T00:31:10;94789.16;;;7.49;79.39
69171;BME280;56279;47.902;12.308;2023-04-25T00:33:11;94788.59;;;7.52;79.42
69171;BME280;56279;47.902;12.308;2023-04-25T00:35:13;94784.63;;;7.54;79.33
69171;BME280;56279;47.902;12.308;2023-04-25T00:37:14;94784.38;;;7.56;79.68
69171;BME280;56279;47.902;12.308;2023-04-25T00:39:15;94782.81;;;7.55;79.37
69171;BME280;56279;47.902;12.308;2023-04-25T00:41:17;94783.59;;;7.55;79.38
69171;BME280;56279;47.902;12.308;2023-04-25T00:43:20;94784.09;;;7.57;79.68
69171;BME280;56279;47.902;12.308;2023-04-25T00:45:27;94783.31;;;7.57;79.23
69171;BME280;56279;47.902;12.308;2023-04-25T00:47:28;94783.81;;;7.59;79.24
69171;BME280;56279;47.902;12.308;2023-04-25T00:49:30;94784.91;;;7.58;79.26
69171;BME280;56279;47.902;12.308;2023-04-25T00:51:32;94768.34;;;7.57;79.48
69171;BME280;56279;47.902;12.308;2023-04-25T00:53:34;94765.72;;;7.57;79.75
69171;BME280;56279;47.902;12.308;2023-04-25T00:55:35;94769.91;;;7.58;79.26
69171;BME280;56279;47.902;12.308;2023-04-25T00:57:37;94763.09;;;7.62;78.79
69171;BME280;56279;47.902;12.308;2023-04-25T00:59:44;94765.94;;;7.66;79.09
69171;BME280;56279;47.902;12.308;2023-04-25T01:01:48;94762.78;;;7.69;79.66
69171;BME280;56279;47.902;12.308;2023-04-25T01:03:49;94761.72;;;7.70;79.57
69171;BME280;56279;47.902;12.308;2023-04-25T01:05:51;94768.03;;;7.69;80.02
69171;BME280;56279;47.902;12.308;2023-04-25T01:07:53;94765.69;;;7.68;79.88
69171;BME280;56279;47.902;12.308;2023-04-25T01:09:55;94763.31;;;7.66;80.28
69171;BME280;56279;47.902;12.308;2023-04-25T01:11:57;94765.94;;;7.66;80.38
69171;BME280;56279;47.902;12.308;2023-04-25T01:14:02;94766.72;;;7.66;80.45
69171;BME280;56279;47.902;12.308;2023-04-25T01:16:04;94764.59;;;7.68;79.69
69171;BME280;56279;47.902;12.308;2023-04-25T01:18:07;94760.94;;;7.70;79.72
69171;BME280;56279;47.902;12.308;2023-04-25T01:20:11;94760.66;;;7.71;79.35
69171;BME280;56279;47.902;12.308;2023-04-25T01:22:12;94761.16;;;7.73;80.07
69171;BME280;56279;47.902;12.308;2023-04-25T01:24:15;94766.66;;;7.77;79.87
69171;BME280;56279;47.902;12.308;2023-04-25T01:26:17;94764.56;;;7.79;78.87
69171;BME280;56279;47.902;12.308;2023-04-25T01:28:19;94764.03;;;7.82;79.49
69171;BME280;56279;47.902;12.308;2023-04-25T01:30:20;94767.91;;;7.84;78.92
69171;BME280;56279;47.902;12.308;2023-04-25T01:32:23;94756.38;;;7.85;79.50
69171;BME280;56279;47.902;12.308;2023-04-25T01:34:24;94754.25;;;7.87;79.10
69171;BME280;56279;47.902;12.308;2023-04-25T01:36:26;94757.38;;;7.89;78.70
69171;BME280;56279;47.902;12.308;2023-04-25T01:38:28;94752.91;;;7.90;78.79
69171;BME280;56279;47.902;12.308;2023-04-25T01:40:32;94751.88;;;7.91;78.40
69171;BME280;56279;47.902;12.308;2023-04-25T01:42:35;94754.22;;;7.92;78.78
69171;BME280;56279;47.902;12.308;2023-04-25T01:44:37;94755.00;;;7.93;78.30
69171;BME280;56279;47.902;12.308;2023-04-25T01:46:40;94750.53;;;7.93;77.96
69171;BME280;56279;47.902;12.308;2023-04-25T01:48:42;94755.78;;;7.93;78.04
69171;BME280;56279;47.902;12.308;2023-04-25T01:50:44;94757.09;;;7.96;77.70
69171;BME280;56279;47.902;12.308;2023-04-25T01:52:47;94761.56;;;7.95;77.91
69171;BME280;56279;47.902;12.308;2023-04-25T01:54:50;94756.31;;;7.95;77.78
69171;BME280;56279;47.902;12.308;2023-04-25T01:56:53;94761.28;;;7.97;77.66
69171;BME280;56279;47.902;12.308;2023-04-25T01:58:57;94757.09;;;7.96;77.93
69171;BME280;56279;47.902;12.308;2023-04-25T02:01:19;94752.09;;;7.94;78.00
69171;BME280;56279;47.902;12.308;2023-04-25T02:03:31;94744.25;;;7.89;78.37
69171;BME280;56279;47.902;12.308;2023-04-25T02:05:35;94744.81;;;7.86;78.22
69171;BME280;56279;47.902;12.308;2023-04-25T02:07:37;94740.88;;;7.84;78.41
69171;BME280;56279;47.902;12.308;2023-04-25T02:09:38;94739.09;;;7.79;78.23
69171;BME280;56279;47.902;12.308;2023-04-25T02:11:41;94748.81;;;7.74;78.78
69171;BME280;56279;47.902;12.308;2023-04-25T02:14:01;94743.09;;;7.66;79.17
69171;BME280;56279;47.902;12.308;2023-04-25T02:16:16;94744.94;;;7.61;79.02
69171;BME280;56279;47.902;12.308;2023-04-25T02:18:17;94738.97;;;7.55;79.00
69171;BME280;56279;47.902;12.308;2023-04-25T02:20:23;94736.09;;;7.47;79.22
69171;BME280;56279;47.902;12.308;2023-04-25T02:22:24;94743.75;;;7.43;79.97
69171;BME280;56279;47.902;12.308;2023-04-25T02:24:28;94732.25;;;7.34;80.03
69171;BME280;56279;47.902;12.308;2023-04-25T02:26:31;94742.78;;;7.29;80.06
69171;BME280;56279;47.902;12.308;2023-04-25T02:28:32;94740.44;;;7.23;80.13
69171;BME280;56279;47.902;12.308;2023-04-25T02:30:33;94737.34;;;7.16;80.23
69171;BME280;56279;47.902;12.308;2023-04-25T02:32:39;94744.72;;;7.09;80.79
69171;BME280;56279;47.902;12.308;2023-04-25T02:34:41;94738.97;;;7.02;81.08
69171;BME280;56279;47.902;12.308;2023-04-25T02:36:42;94733.72;;;6.96;81.52
69171;BME280;56279;47.902;12.308;2023-04-25T02:38:43;94729.81;;;6.94;81.04
69171;BME280;56279;47.902;12.308;2023-04-25T02:40:45;94731.38;;;6.95;81.95
69171;BME280;56279;47.902;12.308;2023-04-25T02:42:46;94731.91;;;6.97;81.73
69171;BME280;56279;47.902;12.308;2023-04-25T02:44:47;94728.75;;;7.00;81.49
69171;BME280;56279;47.902;12.308;2023-04-25T02:46:49;94733.72;;;7.02;82.14
69171;BME280;56279;47.902;12.308;2023-04-25T02:48:50;94736.56;;;7.05;82.31
69171;BME280;56279;47.902;12.308;2023-04-25T02:50:52;94731.59;;;7.09;81.88
69171;BME280;56279;47.902;12.308;2023-04-25T02:52:53;94737.06;;;7.12;82.13
69171;BME280;56279;47.902;12.308;2023-04-25T02:55:00;94735.75;;;7.15;81.85
69171;BME280;56279;47.902;12.308;2023-04-25T02:57:03;94734.94;;;7.19;82.27
69171;BME280;56279;47.902;12.308;2023-04-25T02:59:10;94731.78;;;7.22;82.22
69171;BME280;56279;47.902;12.308;2023-04-25T03:01:11;94725.22;;;7.25;82.12
69171;BME280;56279;47.902;12.308;2023-04-25T03:03:13;94722.59;;;7.25;82.20
69171;BME280;56279;47.902;12.308;2023-04-25T03:05:14;94719.47;;;7.23;81.61
69171;BME280;56279;47.902;12.308;2023-04-25T03:07:16;94723.16;;;7.17;82.22
69171;BME280;56279;47.902;12.308;2023-04-25T03:09:17;94726.34;;;7.09;82.40
69171;BME280;56279;47.902;12.308;2023-04-25T03:11:18;94722.16;;;7.03;82.10
69171;BME280;56279;47.902;12.308;2023-04-25T03:13:21;94713.78;;;6.95;82.49
69171;BME280;56279;47.902;12.308;2023-04-25T03:15:22;94725.09;;;6.91;82.58
69171;BME280;56279;47.902;12.308;2023-04-25T03:17:24;94719.88;;;6.86;82.24
69171;BME280;56279;47.902;12.308;2023-04-25T03:19:25;94722.53;;;6.81;82.47
69171;BME280;56279;47.902;12.308;2023-04-25T03:21:27;94720.94;;;6.80;82.58
69171;BME280;56279;47.902;12.308;2023-04-25T03:23:28;94720.94;;;6.80;83.03
69171;BME280;56279;47.902;12.308;2023-04-25T03:25:29;94725.91;;;6.81;82.81
69171;BME280;56279;47.902;12.308;2023-04-25T03:27:31;94718.03;;;6.81;82.97
69171;BME280;56279;47.902;12.308;2023-04-25T03:29:32;94726.16;;;6.85;82.57
69171;BME280;56279;47.902;12.308;2023-04-25T03:31:37;94713.56;;;6.87;82.97
69171;BME280;56279;47.902;12.308;2023-04-25T03:33:39;94715.66;;;6.90;82.63
69171;BME280;56279;47.902;12.308;2023-04-25T03:35:40;94717.50;;;6.89;82.89
69171;BME280;56279;47.902;12.308;2023-04-25T03:37:43;94724.84;;;6.87;82.69
69171;BME280;56279;47.902;12.308;2023-04-25T03:39:49;94725.13;;;6.86;82.85
69171;BME280;56279;47.902;12.308;2023-04-25T03:41:52;94716.72;;;6.89;83.07
69171;BME280;56279;47.902;12.308;2023-04-25T03:43:54;94723.78;;;6.93;82.93
69171;BME280;56279;47.902;12.308;2023-04-25T03:45:57;94725.59;;;6.98;82.92
69171;BME280;56279;47.902;12.308;2023-04-25T03:48:00;94720.06;;;7.05;82.53
69171;BME280;56279;47.902;12.308;2023-04-25T03:50:03;94717.16;;;7.06;82.74
69171;BME280;56279;47.902;12.308;2023-04-25T03:52:05;94717.16;;;7.11;82.91
69171;BME280;56279;47.902;12.308;2023-04-25T03:54:11;94717.16;;;7.11;82.89
69171;BME280;56279;47.902;12.308;2023-04-25T03:56:28;94719.50;;;7.13;82.83
69171;BME280;56279;47.902;12.308;2023-04-25T03:58:36;94721.88;;;7.09;83.01
69171;BME280;56279;47.902;12.308;2023-04-25T04:00:38;94715.34;;;7.07;83.26
69171;BME280;56279;47.902;12.308;2023-04-25T04:02:39;94720.84;;;7.05;83.72
69171;BME280;56279;47.902;12.308;2023-04-25T04:04:41;94720.06;;;7.05;83.34
69171;BME280;56279;47.902;12.308;2023-04-25T04:06:45;94725.84;;;7.07;83.33
69171;BME280;56279;47.902;12.308;2023-04-25T04:08:52;94725.28;;;7.10;83.39
69171;BME280;56279;47.902;12.308;2023-04-25T04:10:54;94728.69;;;7.10;83.42
69171;BME280;56279;47.902;12.308;2023-04-25T04:12:55;94725.81;;;7.12;83.17
69171;BME280;56279;47.902;12.308;2023-04-25T04:14:57;94727.88;;;7.15;83.63
69171;BME280;56279;47.902;12.308;2023-04-25T04:16:59;94723.94;;;7.17;83.39
69171;BME280;56279;47.902;12.308;2023-04-25T04:19:02;94728.38;;;7.22;83.21
69171;BME280;56279;47.902;12.308;2023-04-25T04:21:04;94730.47;;;7.25;83.28
69171;BME280;56279;47.902;12.308;2023-04-25T04:23:08;94729.16;;;7.27;83.13
69171;BME280;56279;47.902;12.308;2023-04-25T04:25:10;94735.94;;;7.28;83.01
69171;BME280;56279;47.902;12.308;2023-04-25T04:27:41;94757.75;;;7.24;83.45
69171;BME280;56279;47.902;12.308;2023-04-25T04:29:56;94782.44;;;7.18;82.55
69171;BME280;56279;47.902;12.308;2023-04-25T04:32:07;94782.47;;;7.13;81.83
69171;BME280;56279;47.902;12.308;2023-04-25T04:34:10;94776.19;;;7.09;81.15
69171;BME280;56279;47.902;12.308;2023-04-25T04:36:12;94783.03;;;7.05;81.04
69171;BME280;56279;47.902;12.308;2023-04-25T04:38:14;94773.34;;;7.00;80.67
69171;BME280;56279;47.902;12.308;2023-04-25T04:40:17;94787.00;;;6.92;80.81
69171;BME280;56279;47.902;12.308;2023-04-25T04:42:29;94799.09;;;6.78;81.46
69171;BME280;56279;47.902;12.308;2023-04-25T04:44:48;94769.50;;;6.62;81.82
69171;BME280;56279;47.902;12.308;2023-04-25T04:47:15;94749.06;;;6.54;82.06
69171;BME280;56279;47.902;12.308;2023-04-25T04:49:35;94741.72;;;6.51;82.00
69171;BME280;56279;47.902;12.308;2023-04-25T04:51:55;94741.47;;;6.53;82.46
69171;BME280;56279;47.902;12.308;2023-04-25T04:54:25;94747.22;;;6.55;82.14
69171;BME280;56279;47.902;12.308;2023-04-25T04:56:50;94740.16;;;6.60;81.94
69171;BME280;56279;47.902;12.308;2023-04-25T04:59:04;94740.66;;;6.67;82.18
69171;BME280;56279;47.902;12.308;2023-04-25T05:01:24;94735.38;;;6.77;82.32
69171;BME280;56279;47.902;12.308;2023-04-25T05:03:49;94741.91;;;6.90;82.12
69171;BME280;56279;47.902;12.308;2023-04-25T05:06:09;94732.66;;;7.03;81.97
69171;BME280;56279;47.902;12.308;2023-04-25T05:08:29;94743.09;;;7.18;81.79
69171;BME280;56279;47.902;12.308;2023-04-25T05:10:53;94745.63;;;7.33;81.67
69171;BME280;56279;47.902;12.308;2023-04-25T05:13:21;94745.06;;;7.41;81.38
69171;BME280;56279;47.902;12.308;2023-04-25T05:15:35;94738.72;;;7.47;81.05
69171;BME280;56279;47.902;12.308;2023-04-25T05:17:51;94742.41;;;7.51;81.15
69171;BME280;56279;47.902;12.308;2023-04-25T05:19:53;94736.38;;;7.50;81.37
69171;BME280;56279;47.902;12.308;2023-04-25T05:22:13;94752.66;;;7.42;80.83
69171;BME280;56279;47.902;12.308;2023-04-25T05:24:35;94746.41;;;7.33;81.29
69171;BME280;56279;47.902;12.308;2023-04-25T05:26:58;94770.34;;;7.27;81.35
69171;BME280;56279;47.902;12.308;2023-04-25T05:29:22;94771.94;;;7.23;81.11
69171;BME280;56279;47.902;12.308;2023-04-25T05:31:44;94786.38;;;7.20;81.68
69171;BME280;56279;47.902;12.308;2023-04-25T05:33:49;94795.56;;;7.18;81.37
69171;BME280;56279;47.902;12.308;2023-04-25T05:35:51;94785.38;;;7.11;80.77
69171;BME280;56279;47.902;12.308;2023-04-25T05:37:53;94795.88;;;7.01;81.06
69171;BME280;56279;47.902;12.308;2023-04-25T05:40:08;94793.56;;;6.89;81.38
69171;BME280;56279;47.902;12.308;2023-04-25T05:42:28;94769.22;;;6.74;82.34
69171;BME280;56279;47.902;12.308;2023-04-25T05:44:55;94771.06;;;6.63;82.32
69171;BME280;56279;47.902;12.308;2023-04-25T05:47:31;94751.94;;;6.58;82.85
69171;BME280;56279;47.902;12.308;2023-04-25T05:49:48;94757.44;;;6.56;82.99
69171;BME280;56279;47.902;12.308;2023-04-25T05:52:07;94757.97;;;6.58;83.46
69171;BME280;56279;47.902;12.308;2023-04-25T05:54:23;94752.72;;;6.58;83.21
69171;BME280;56279;47.902;12.308;2023-04-25T05:56:25;94752.47;;;6.60;83.48
69171;BME280;56279;47.902;12.308;2023-04-25T05:58:28;94742.75;;;6.65;83.17
69171;BME280;56279;47.902;12.308;2023-04-25T06:00:30;94738.50;;;6.79;83.50
69171;BME280;56279;47.902;12.308;2023-04-25T06:02:32;94738.97;;;6.96;83.85
69171;BME280;56279;47.902;12.308;2023-04-25T06:04:34;94741.78;;;7.15;83.43
69171;BME280;56279;47.902;12.308;2023-04-25T06:06:35;94732.50;;;7.33;82.89
69171;BME280;56279;47.902;12.308;2023-04-25T06:08:37;94736.38;;;7.45;82.68
69171;BME280;56279;47.902;12.308;2023-04-25T06:10:39;94734.25;;;7.52;82.70
69171;BME280;56279;47.902;12.308;2023-04-25T06:12:40;94737.13;;;7.56;82.21
69171;BME280;56279;47.902;12.308;2023-04-25T06:14:42;94745.00;;;7.56;82.41
69171;BME280;56279;47.902;12.308;2023-04-25T06:16:44;94743.16;;;7.56;82.63
69171;BME280;56279;47.902;12.308;2023-04-25T06:18:45;94747.34;;;7.57;82.23
69171;BME280;56279;47.902;12.308;2023-04-25T06:20:47;94751.81;;;7.57;81.88
69171;BME280;56279;47.902;12.308;2023-04-25T06:22:49;94751.31;;;7.50;81.77
69171;BME280;56279;47.902;12.308;2023-04-25T06:24:50;94753.47;;;7.38;82.09
69171;BME280;56279;47.902;12.308;2023-04-25T06:26:52;94752.75;;;7.27;82.38
69171;BME280;56279;47.902;12.308;2023-04-25T06:28:53;94753.06;;;7.21;82.54
69171;BME280;56279;47.902;12.308;2023-04-25T06:30:55;94747.31;;;7.19;82.81
69171;BME280;56279;47.902;12.308;2023-04-25T06:32:58;94737.31;;;7.21;83.15
69171;BME280;56279;47.902;12.308;2023-04-25T06:35:00;94741.47;;;7.27;82.62
69171;BME280;56279;47.902;12.308;2023-04-25T06:37:01;94734.09;;;7.34;82.86
69171;BME280;56279;47.902;12.308;2023-04-25T06:39:03;94734.56;;;7.46;82.93
69171;BME280;56279;47.902;12.308;2023-04-25T06:41:04;94728.69;;;7.59;82.83
69171;BME280;56279;47.902;12.308;2023-04-25T06:43:09;94719.44;;;7.72;82.95
69171;BME280;56279;47.902;12.308;2023-04-25T06:45:34;94722.72;;;7.87;81.96
69171;BME280;56279;47.902;12.308;2023-04-25T06:47:35;94712.63;;;8.04;81.77
69171;BME280;56279;47.902;12.308;2023-04-25T06:49:37;94719.84;;;8.17;81.67
69171;BME280;56279;47.902;12.308;2023-04-25T06:51:38;94716.63;;;8.30;81.31
69171;BME280;56279;47.902;12.308;2023-04-25T06:53:40;94713.63;;;8.42;80.92
69171;BME280;56279;47.902;12.308;2023-04-25T06:55:45;94707.75;;;8.50;80.15
69171;BME280;56279;47.902;12.308;2023-04-25T06:57:52;94712.75;;;8.52;79.91
69171;BME280;56279;47.902;12.308;2023-04-25T07:00:20;94703.78;;;8.53;79.27
69171;BME280;56279;47.902;12.308;2023-04-25T07:02:21;94696.38;;;8.55;79.21
69171;BME280;56279;47.902;12.308;2023-04-25T07:04:24;94708.25;;;8.52;79.16
69171;BME280;56279;47.902;12.308;2023-04-25T07:06:29;94712.41;;;8.58;78.93
69171;BME280;56279;47.902;12.308;2023-04-25T07:08:33;94711.78;;;8.66;79.02
69171;BME280;56279;47.902;12.308;2023-04-25T07:10:35;94717.50;;;8.73;79.09
69171;BME280;56279;47.902;12.308;2023-04-25T07:12:37;94718.00;;;8.75;78.32
69171;BME280;56279;47.902;12.308;2023-04-25T07:14:40;94718.25;;;8.79;78.53
69171;BME280;56279;47.902;12.308;2023-04-25T07:16:42;94718.97;;;8.84;78.42
69171;BME280;56279;47.902;12.308;2023-04-25T07:18:45;94726.28;;;8.87;77.78
69171;BME280;56279;47.902;12.308;2023-04-25T07:20:47;94717.59;;;8.87;77.45
69171;BME280;56279;47.902;12.308;2023-04-25T07:22:48;94713.63;;;8.89;77.30
69171;BME280;56279;47.902;12.308;2023-04-25T07:24:51;94712.75;;;8.99;77.16
69171;BME280;56279;47.902;12.308;2023-04-25T07:26:56;94706.31;;;9.10;77.14
69171;BME280;56279;47.902;12.308;2023-04-25T07:29:15;94719.25;;;9.25;76.38
69171;BME280;56279;47.902;12.308;2023-04-25T07:31:17;94708.66;;;9.30;75.96
69171;BME280;56279;47.902;12.308;2023-04-25T07:33:19;94711.69;;;9.42;75.47
69171;BME280;56279;47.902;12.308;2023-04-25T07:35:21;94715.50;;;9.50;75.57
69171;BME280;56279;47.902;12.308;2023-04-25T07:37:23;94717.81;;;9.56;74.57
69171;BME280;56279;47.902;12.308;2023-04-25T07:39:36;94716.59;;;9.67;74.79
69171;BME280;56279;47.902;12.308;2023-04-25T07:41:38;94717.06;;;9.88;74.13
69171;BME280;56279;47.902;12.308;2023-04-25T07:43:40;94716.25;;;10.06;73.22
69171;BME280;56279;47.902;12.308;2023-04-25T07:45:45;94715.16;;;10.12;72.77
69171;BME280;56279;47.902;12.308;2023-04-25T07:47:47;94717.34;;;10.24;72.46
69171;BME280;56279;47.902;12.308;2023-04-25T07:49:49;94715.44;;;10.43;71.92
69171;BME280;56279;47.902;12.308;2023-04-25T07:51:50;94714.84;;;10.60;71.31
69171;BME280;56279;47.902;12.308;2023-04-25T07:53:54;94719.78;;;10.80;71.52
69171;BME280;56279;47.902;12.308;2023-04-25T07:55:56;94712.91;;;10.92;70.49
69171;BME280;56279;47.902;12.308;2023-04-25T07:57:57;94711.66;;;10.90;69.65
69171;BME280;56279;47.902;12.308;2023-04-25T07:59:58;94706.59;;;10.80;69.31
69171;BME280;56279;47.902;12.308;2023-04-25T08:02:01;94706.19;;;10.59;69.32
69171;BME280;56279;47.902;12.308;2023-04-25T08:04:04;94707.53;;;10.43;70.13
69171;BME280;56279;47.902;12.308;2023-04-25T08:06:28;94720.53;;;10.21;71.09
69171;BME280;56279;47.902;12.308;2023-04-25T08:08:52;94725.19;;;9.92;71.63
69171;BME280;56279;47.902;12.308;2023-04-25T08:10:57;94729.53;;;9.64;72.55
69171;BME280;56279;47.902;12.308;2023-04-25T08:12:59;94734.28;;;9.43;73.43
69171;BME280;56279;47.902;12.308;2023-04-25T08:15:01;94734.63;;;9.18;73.71
69171;BME280;56279;47.902;12.308;2023-04-25T08:17:07;94723.06;;;8.95;74.75
69171;BME280;56279;47.902;12.308;2023-04-25T08:19:14;94723.50;;;8.79;75.33
69171;BME280;56279;47.902;12.308;2023-04-25T08:21:16;94733.34;;;8.68;75.36
69171;BME280;56279;47.902;12.308;2023-04-25T08:23:20;94728.66;;;8.65;76.08
69171;BME280;56279;47.902;12.308;2023-04-25T08:25:41;94733.34;;;8.68;75.81
69171;BME280;56279;47.902;12.308;2023-04-25T08:27:47;94731.22;;;8.70;76.16
69171;BME280;56279;47.902;12.308;2023-04-25T08:29:48;94736.94;;;8.77;75.90
69171;BME280;56279;47.902;12.308;2023-04-25T08:31:50;94737.91;;;8.86;76.35
69171;BME280;56279;47.902;12.308;2023-04-25T08:33:52;94734.38;;;8.96;75.94
69171;BME280;56279;47.902;12.308;2023-04-25T08:35:58;94737.03;;;9.15;75.91
69171;BME280;56279;47.902;12.308;2023-04-25T08:38:04;94730.53;;;9.31;76.02
69171;BME280;56279;47.902;12.308;2023-04-25T08:40:06;94733.69;;;9.51;76.35
69171;BME280;56279;47.902;12.308;2023-04-25T08:42:26;94725.28;;;9.68;75.92
69171;BME280;56279;47.902;12.308;2023-04-25T08:44:30;94715.00;;;9.85;75.16
69171;BME280;56279;47.902;12.308;2023-04-25T08:46:31;94720.34;;;9.99;75.12
69171;BME280;56279;47.902;12.308;2023-04-25T08:48:46;94727.28;;;10.08;75.47
69171;BME280;56279;47.902;12.308;2023-04-25T08:50:52;94728.16;;;10.04;74.69
69171;BME280;56279;47.902;12.308;2023-04-25T08:52:56;94729.19;;;9.89;74.68
69171;BME280;56279;47.902;12.308;2023-04-25T08:55:01;94719.50;;;9.85;75.81
69171;BME280;56279;47.902;12.308;2023-04-25T08:57:05;94722.16;;;9.85;75.04
69171;BME280;56279;47.902;12.308;2023-04-25T08:59:07;94720.88;;;9.82;74.21
69171;BME280;56279;47.902;12.308;2023-04-25T09:01:11;94719.84;;;9.78;74.00
69171;BME280;56279;47.902;12.308;2023-04-25T09:03:21;94718.97;;;9.83;73.61
69171;BME280;56279;47.902;12.308;2023-04-25T09:05:23;94722.56;;;9.92;73.86
69171;BME280;56279;47.902;12.308;2023-04-25T09:07:27;94715.28;;;10.02;73.52
69171;BME280;56279;47.902;12.308;2023-04-25T09:09:30;94721.19;;;10.13;73.15
69171;BME280;56279;47.902;12.308;2023-04-25T09:11:35;94718.47;;;10.18;72.01
69171;BME280;56279;47.902;12.308;2023-04-25T09:13:40;94723.41;;;10.24;71.59
69171;BME280;56279;47.902;12.308;2023-04-25T09:16:01;94709.84;;;10.31;71.73
69171;BME280;56279;47.902;12.308;2023-04-25T09:20:28;94715.53;;;10.52;70.49
69171;BME280;56279;47.902;12.308;2023-04-25T09:22:30;94716.63;;;10.64;69.84
69171;BME280;56279;47.902;12.308;2023-04-25T09:24:40;94715.97;;;10.86;69.03
69171;BME280;56279;47.902;12.308;2023-04-25T09:26:42;94711.69;;;11.03;67.86
69171;BME280;56279;47.902;12.308;2023-04-25T09:28:45;94709.81;;;11.18;67.56
69171;BME280;56279;47.902;12.308;2023-04-25T09:30:56;94706.94;;;11.28;66.70
69171;BME280;56279;47.902;12.308;2023-04-25T09:33:10;94716.44;;;11.29;65.40
69171;BME280;56279;47.902;12.308;2023-04-25T09:35:26;94711.75;;;11.26;66.67
69171;BME280;56279;47.902;12.308;2023-04-25T09:37:29;94712.94;;;11.20;67.48
69171;BME280;56279;47.902;12.308;2023-04-25T09:39:39;94716.06;;;11.22;67.08
69171;BME280;56279;47.902;12.308;2023-04-25T09:41:53;94712.53;;;11.26;66.29
69171;BME280;56279;47.902;12.308;2023-04-25T09:43:57;94717.72;;;11.31;65.39
69171;BME280;56279;47.902;12.308;2023-04-25T09:46:10;94711.44;;;11.41;65.47
69171;BME280;56279;47.902;12.308;2023-04-25T09:48:22;94705.22;;;11.59;64.20
69171;BME280;56279;47.902;12.308;2023-04-25T09:50:26;94714.72;;;11.73;63.82
69171;BME280;56279;47.902;12.308;2023-04-25T09:52:37;94706.50;;;11.97;64.02
69171;BME280;56279;47.902;12.308;2023-04-25T09:54:51;94701.53;;;12.18;63.02
69171;BME280;56279;47.902;12.308;2023-04-25T09:57:11;94705.06;;;12.35;63.10
69171;BME280;56279;47.902;12.308;2023-04-25T09:59:14;94708.66;;;12.39;61.78
69171;BME280;56279;47.902;12.308;2023-04-25T10:01:16;94715.59;;;12.27;61.30
69171;BME280;56279;47.902;12.308;2023-04-25T10:03:38;94721.97;;;12.04;61.68
69171;BME280;56279;47.902;12.308;2023-04-25T10:06:14;94754.06;;;11.75;61.91
69171;BME280;56279;47.902;12.308;2023-04-25T10:08:18;94753.44;;;11.29;63.13
69171;BME280;56279;47.902;12.308;2023-04-25T10:10:21;94758.56;;;10.66;65.86
69171;BME280;56279;47.902;12.308;2023-04-25T10:12:26;94762.81;;;10.16;67.95
69171;BME280;56279;47.902;12.308;2023-04-25T10:14:29;94752.00;;;9.80;69.50
69171;BME280;56279;47.902;12.308;2023-04-25T10:16:31;94749.63;;;9.60;71.26
69171;BME280;56279;47.902;12.308;2023-04-25T10:18:32;94753.66;;;9.52;71.66
69171;BME280;56279;47.902;12.308;2023-04-25T10:20:34;94752.31;;;9.55;71.79
69171;BME280;56279;47.902;12.308;2023-04-25T10:22:38;94741.66;;;9.65;70.59
69171;BME280;56279;47.902;12.308;2023-04-25T10:24:40;94732.69;;;9.85;69.24
69171;BME280;56279;47.902;12.308;2023-04-25T10:26:42;94727.66;;;10.02;69.41
69171;BME280;56279;47.902;12.308;2023-04-25T10:28:59;94726.78;;;10.25;69.41
69171;BME280;56279;47.902;12.308;2023-04-25T10:33:44;94720.25;;;10.55;68.61
69171;BME280;56279;47.902;12.308;2023-04-25T10:35:45;94715.63;;;10.60;69.16
69171;BME280;56279;47.902;12.308;2023-04-25T10:38:09;94709.00;;;10.63;67.30
69171;BME280;56279;47.902;12.308;2023-04-25T10:40:13;94710.19;;;10.70;68.71
69171;BME280;56279;47.902;12.308;2023-04-25T10:42:17;94707.16;;;10.77;66.68
69171;BME280;56279;47.902;12.308;2023-04-25T10:44:18;94702.09;;;10.80;66.62
69171;BME280;56279;47.902;12.308;2023-04-25T10:46:29;94702.28;;;10.84;65.85
69171;BME280;56279;47.902;12.308;2023-04-25T10:48:32;94703.53;;;10.86;65.01
69171;BME280;56279;47.902;12.308;2023-04-25T10:50:39;94704.25;;;10.92;64.21
69171;BME280;56279;47.902;12.308;2023-04-25T10:52:40;94693.56;;;11.10;64.30
69171;BME280;56279;47.902;12.308;2023-04-25T10:54:56;94696.47;;;11.36;63.60
69171;BME280;56279;47.902;12.308;2023-04-25T10:56:58;94701.09;;;11.66;62.83
69171;BME280;56279;47.902;12.308;2023-04-25T10:59:18;94695.28;;;11.92;61.26
69171;BME280;56279;47.902;12.308;2023-04-25T11:01:21;94694.31;;;12.10;60.74
69171;BME280;56279;47.902;12.308;2023-04-25T11:03:26;94696.75;;;12.28;60.37
69171;BME280;56279;47.902;12.308;2023-04-25T11:05:36;94699.50;;;12.45;59.99
69171;BME280;56279;47.902;12.308;2023-04-25T11:07:45;94699.88;;;12.53;59.62
69171;BME280;56279;47.902;12.308;2023-04-25T11:09:52;94696.59;;;12.56;58.61